createdAt,value
2022-10-25T00:00:09.253Z,100192.63
2022-10-25T00:02:59.570Z,100188.63
2022-10-25T00:05:27.218Z,100194.66
2022-10-25T00:07:54.979Z,100186.34
2022-10-25T00:10:25.568Z,100194.41
2022-10-25T00:12:53.696Z,100188.34
2022-10-25T00:15:21.871Z,100188.41
2022-10-25T00:17:50.294Z,100193.56
2022-10-25T00:20:18.518Z,100188.53
2022-10-25T00:22:46.574Z,100197.63
2022-10-25T00:25:14.376Z,100199.13
2022-10-25T00:27:42.351Z,100209.63
2022-10-25T00:30:10.744Z,100210.09
2022-10-25T00:32:38.557Z,100211.16
2022-10-25T00:35:06.765Z,100220.38
2022-10-25T00:37:35.762Z,100219.22
2022-10-25T00:40:04.475Z,100217.66
2022-10-25T00:42:32.292Z,100213.97
2022-10-25T00:45:02.560Z,100216.75
2022-10-25T00:47:56.371Z,100213.41
2022-10-25T00:50:26.951Z,100213.69
2022-10-25T00:52:59.367Z,100209.72
2022-10-25T00:55:28.790Z,100200.06
2022-10-25T00:58:22.864Z,100203.06
2022-10-25T01:00:50.817Z,100205.91
2022-10-25T01:03:22.888Z,100203.97
2022-10-25T01:05:52.170Z,100209.13
2022-10-25T01:08:21.724Z,100209.84
2022-10-25T01:10:49.708Z,100201.34
2022-10-25T01:13:17.798Z,100197.81
2022-10-25T01:16:10.940Z,100197.38
2022-10-25T01:18:43.450Z,100203.75
2022-10-25T01:21:42.032Z,100205.31
2022-10-25T01:24:16.029Z,100207.16
2022-10-25T01:27:17.637Z,100209.78
2022-10-25T01:30:12.722Z,100210.44
2022-10-25T01:32:46.501Z,100214.75
2022-10-25T01:36:16.082Z,100212.63
2022-10-25T01:39:00.752Z,100214.84
2022-10-25T01:41:38.855Z,100217.41
2022-10-25T01:44:15.831Z,100219.09
2022-10-25T01:46:57.552Z,100208.59
2022-10-25T01:49:41.110Z,100211.09
2022-10-25T01:52:09.065Z,100203.63
2022-10-25T01:54:36.801Z,100212.00
2022-10-25T01:57:14.719Z,100208.59
2022-10-25T01:59:56.158Z,100208.72
2022-10-25T02:02:32.121Z,100217.72
2022-10-25T02:05:02.796Z,100222.50
2022-10-25T02:07:43.314Z,100217.06
2022-10-25T02:10:15.447Z,100208.91
2022-10-25T02:12:49.734Z,100205.75
2022-10-25T02:15:28.678Z,100207.47
2022-10-25T02:18:00.673Z,100212.44
2022-10-25T02:20:32.397Z,100209.97
2022-10-25T02:23:03.826Z,100203.63
2022-10-25T02:25:34.828Z,100201.28
2022-10-25T02:28:07.270Z,100202.22
2022-10-25T02:30:36.827Z,100210.28
2022-10-25T02:33:05.298Z,100209.56
2022-10-25T02:35:33.066Z,100210.09
2022-10-25T02:38:01.527Z,100209.66
2022-10-25T02:40:30.110Z,100200.72
2022-10-25T02:42:57.920Z,100201.78
2022-10-25T02:45:25.703Z,100212.44
2022-10-25T02:47:53.402Z,100211.53
2022-10-25T02:50:21.031Z,100202.22
2022-10-25T02:52:49.150Z,100196.09
2022-10-25T02:55:17.018Z,100195.91
2022-10-25T02:57:44.792Z,100191.63
2022-10-25T03:02:40.779Z,100179.06
2022-10-25T03:05:08.570Z,100177.34
2022-10-25T03:07:36.351Z,100179.50
2022-10-25T03:10:04.219Z,100170.00
2022-10-25T03:12:31.969Z,100166.69
2022-10-25T03:14:59.650Z,100163.25
2022-10-25T03:17:27.415Z,100156.09
2022-10-25T03:19:55.086Z,100156.47
2022-10-25T03:22:22.829Z,100166.53
2022-10-25T03:24:50.573Z,100168.38
2022-10-25T03:27:18.482Z,100177.41
2022-10-25T03:29:46.113Z,100167.28
2022-10-25T03:32:13.876Z,100156.91
2022-10-25T03:34:41.454Z,100172.22
2022-10-25T03:37:09.288Z,100154.81
2022-10-25T03:39:36.830Z,100150.59
2022-10-25T03:42:04.753Z,100149.84
2022-10-25T03:44:32.501Z,100158.91
2022-10-25T03:47:00.343Z,100159.44
2022-10-25T03:49:27.963Z,100150.06
2022-10-25T03:51:57.963Z,100157.16
2022-10-25T03:54:29.399Z,100153.25
2022-10-25T03:56:57.466Z,100154.19
2022-10-25T03:59:25.153Z,100153.19
2022-10-25T04:01:52.966Z,100161.44
2022-10-25T04:04:20.711Z,100160.44
2022-10-25T04:06:48.615Z,100165.25
2022-10-25T04:09:16.269Z,100171.41
2022-10-25T04:11:44.076Z,100166.81
2022-10-25T04:14:11.719Z,100165.25
2022-10-25T04:16:39.573Z,100170.50
2022-10-25T04:19:07.141Z,100165.13
2022-10-25T04:21:35.076Z,100167.66
2022-10-25T04:24:04.401Z,100171.50
2022-10-25T04:26:34.907Z,100174.91
2022-10-25T04:29:03.418Z,100176.06
2022-10-25T04:31:31.382Z,100170.66
2022-10-25T04:33:59.007Z,100167.28
2022-10-25T04:36:30.279Z,100168.72
2022-10-25T04:38:58.123Z,100168.19
2022-10-25T04:41:26.220Z,100168.72
2022-10-25T04:43:53.865Z,100165.69
2022-10-25T04:46:21.879Z,100165.81
2022-10-25T04:48:49.491Z,100165.53
2022-10-25T04:51:17.260Z,100160.94
2022-10-25T04:53:44.926Z,100162.97
2022-10-25T04:56:14.422Z,100166.06
2022-10-25T04:58:42.323Z,100164.28
2022-10-25T05:01:13.607Z,100155.91
2022-10-25T05:03:41.756Z,100157.09
2022-10-25T05:06:13.806Z,100156.63
2022-10-25T05:08:43.769Z,100157.03
2022-10-25T05:11:13.807Z,100163.44
2022-10-25T05:13:42.603Z,100164.28
2022-10-25T05:16:17.377Z,100167.63
2022-10-25T05:18:48.102Z,100159.72
2022-10-25T05:21:17.243Z,100165.44
2022-10-25T05:23:45.739Z,100166.13
2022-10-25T05:26:15.250Z,100167.38
2022-10-25T05:28:46.013Z,100163.72
2022-10-25T05:31:29.251Z,100170.00
2022-10-25T05:33:59.814Z,100183.22
2022-10-25T05:36:29.478Z,100178.75
2022-10-25T05:38:58.271Z,100174.50
2022-10-25T05:41:26.097Z,100176.88
2022-10-25T05:43:53.723Z,100183.59
2022-10-25T05:46:23.610Z,100182.22
2022-10-25T05:48:51.969Z,100181.44
2022-10-25T05:51:32.967Z,100173.50
2022-10-25T05:54:07.197Z,100192.66
2022-10-25T05:56:35.604Z,100201.19
2022-10-25T05:59:10.946Z,100207.34
2022-10-25T06:01:49.023Z,100208.56
2022-10-25T06:04:17.701Z,100212.59
2022-10-25T06:06:47.606Z,100217.41
2022-10-25T06:09:16.046Z,100210.56
2022-10-25T06:11:44.844Z,100215.44
2022-10-25T06:14:12.554Z,100217.44
2022-10-25T06:16:40.454Z,100215.88
2022-10-25T06:19:08.472Z,100221.19
2022-10-25T06:21:37.250Z,100223.81
2022-10-25T06:24:05.579Z,100216.50
2022-10-25T06:26:33.746Z,100220.00
2022-10-25T06:29:04.057Z,100227.13
2022-10-25T06:31:33.379Z,100227.41
2022-10-25T06:34:02.272Z,100223.50
2022-10-25T06:36:31.514Z,100234.94
2022-10-25T06:39:05.837Z,100231.53
2022-10-25T06:41:37.154Z,100237.50
2022-10-25T06:44:07.188Z,100238.31
2022-10-25T06:47:04.371Z,100228.03
2022-10-25T06:49:26.657Z,100235.41
2022-10-25T06:51:54.797Z,100229.53
2022-10-25T06:54:22.600Z,100238.91
2022-10-25T06:56:50.515Z,100224.31
2022-10-25T06:59:19.480Z,100227.28
2022-10-25T07:01:47.854Z,100227.44
2022-10-25T07:04:15.878Z,100226.03
2022-10-25T07:06:43.650Z,100220.91
2022-10-25T07:09:12.529Z,100222.19
2022-10-25T07:11:40.751Z,100228.38
2022-10-25T07:14:10.284Z,100230.63
2022-10-25T07:16:38.204Z,100223.97
2022-10-25T07:19:06.171Z,100217.28
2022-10-25T07:21:34.814Z,100215.03
2022-10-25T07:24:02.855Z,100218.03
2022-10-25T07:26:35.070Z,100218.53
2022-10-25T07:29:03.819Z,100223.31
2022-10-25T07:31:35.146Z,100228.53
2022-10-25T07:34:05.754Z,100235.50
2022-10-25T07:36:34.221Z,100223.84
2022-10-25T07:39:01.849Z,100222.63
2022-10-25T07:41:29.954Z,100224.91
2022-10-25T07:43:58.017Z,100221.19
2022-10-25T07:46:26.301Z,100211.88
2022-10-25T07:48:54.189Z,100215.72
2022-10-25T07:51:22.018Z,100217.13
2022-10-25T07:53:50.064Z,100216.78
2022-10-25T07:56:23.191Z,100220.91
2022-10-25T07:58:52.751Z,100220.00
2022-10-25T08:01:28.462Z,100225.09
2022-10-25T08:03:57.291Z,100223.09
2022-10-25T08:06:25.815Z,100227.75
2022-10-25T08:08:53.488Z,100216.03
2022-10-25T08:11:22.158Z,100213.94
2022-10-25T08:13:51.618Z,100220.06
2022-10-25T08:16:19.548Z,100219.47
2022-10-25T08:18:47.306Z,100219.09
2022-10-25T08:21:15.843Z,100226.78
2022-10-25T08:23:43.460Z,100216.09
2022-10-25T08:26:11.501Z,100220.94
2022-10-25T08:28:39.114Z,100215.94
2022-10-25T08:31:07.075Z,100224.63
2022-10-25T08:33:36.039Z,100212.75
2022-10-25T08:36:04.148Z,100220.84
2022-10-25T08:38:31.792Z,100215.38
2022-10-25T08:41:13.956Z,100210.09
2022-10-25T08:44:13.060Z,100207.03
2022-10-25T08:46:56.131Z,100207.81
2022-10-25T08:49:55.831Z,100210.72
2022-10-25T08:52:38.005Z,100211.50
2022-10-25T08:55:14.900Z,100215.41
2022-10-25T08:57:46.957Z,100221.13
2022-10-25T09:00:20.535Z,100223.41
2022-10-25T09:02:59.885Z,100223.28
2022-10-25T09:06:06.369Z,100229.41
2022-10-25T09:08:36.884Z,100239.47
2022-10-25T09:11:33.330Z,100241.16
2022-10-25T09:14:04.111Z,100245.22
2022-10-25T09:16:49.407Z,100236.22
2022-10-25T09:19:20.524Z,100248.34
2022-10-25T09:21:57.393Z,100240.97
2022-10-25T09:24:45.776Z,100238.31
2022-10-25T09:27:23.158Z,100238.22
2022-10-25T09:30:07.830Z,100248.00
2022-10-25T09:32:43.722Z,100231.72
2022-10-25T09:35:56.301Z,100244.94
2022-10-25T09:38:38.871Z,100239.47
2022-10-25T09:41:25.703Z,100237.97
2022-10-25T09:44:19.384Z,100243.28
2022-10-25T09:47:02.955Z,100243.41
2022-10-25T09:49:52.969Z,100236.09
2022-10-25T09:52:27.050Z,100248.25
2022-10-25T09:55:19.920Z,100238.94
2022-10-25T09:57:48.031Z,100244.59
2022-10-25T10:00:16.236Z,100237.66
2022-10-25T10:02:44.323Z,100233.84
2022-10-25T10:05:20.899Z,100243.38
2022-10-25T10:07:50.413Z,100241.53
2022-10-25T10:10:26.255Z,100240.38
2022-10-25T10:15:41.733Z,100247.16
2022-10-25T10:18:31.109Z,100249.97
2022-10-25T10:21:02.577Z,100243.47
2022-10-25T10:23:43.723Z,100245.59
2022-10-25T10:26:15.569Z,100248.91
2022-10-25T10:28:49.540Z,100243.81
2022-10-25T10:31:18.811Z,100246.06
2022-10-25T10:33:51.207Z,100254.94
2022-10-25T10:36:33.644Z,100241.53
2022-10-25T10:39:27.991Z,100239.56
2022-10-25T10:42:03.277Z,100237.50
2022-10-25T10:44:34.981Z,100242.34
2022-10-25T10:47:11.542Z,100240.53
2022-10-25T10:49:42.271Z,100233.38
2022-10-25T10:52:30.702Z,100243.31
2022-10-25T10:54:59.701Z,100233.69
2022-10-25T10:57:35.992Z,100241.06
2022-10-25T11:00:05.102Z,100237.66
2022-10-25T11:02:41.807Z,100239.97
2022-10-25T11:05:25.580Z,100240.63
2022-10-25T11:08:16.590Z,100242.44
2022-10-25T11:10:44.471Z,100238.41
2022-10-25T11:13:20.633Z,100239.78
2022-10-25T11:15:54.592Z,100240.63
2022-10-25T11:18:32.806Z,100245.28
2022-10-25T11:21:13.055Z,100245.28
2022-10-25T11:23:46.194Z,100243.91
2022-10-25T11:26:32.825Z,100243.38
2022-10-25T11:29:03.717Z,100245.06
2022-10-25T11:31:53.123Z,100242.31
2022-10-25T11:34:52.684Z,100246.03
2022-10-25T11:37:31.198Z,100244.69
2022-10-25T11:40:22.025Z,100242.63
2022-10-25T11:43:11.826Z,100244.69
2022-10-25T11:45:48.514Z,100255.28
2022-10-25T11:48:34.145Z,100232.66
2022-10-25T11:51:17.251Z,100243.59
2022-10-25T11:54:16.641Z,100252.50
2022-10-25T11:56:59.261Z,100250.38
2022-10-25T11:59:32.881Z,100247.41
2022-10-25T12:02:31.971Z,100252.91
2022-10-25T12:05:02.687Z,100254.06
2022-10-25T12:07:35.642Z,100249.69
2022-10-25T12:13:23.372Z,100258.41
2022-10-25T12:15:55.124Z,100265.41
2022-10-25T12:18:29.429Z,100252.47
2022-10-25T12:20:58.497Z,100260.53
2022-10-25T12:23:28.048Z,100259.75
2022-10-25T12:26:02.152Z,100249.69
2022-10-25T12:28:51.546Z,100253.31
2022-10-25T12:31:38.618Z,100251.81
2022-10-25T12:34:29.117Z,100244.19
2022-10-25T12:37:03.203Z,100249.69
2022-10-25T12:39:41.202Z,100247.19
2022-10-25T12:42:30.574Z,100247.69
2022-10-25T12:45:17.063Z,100249.50
2022-10-25T12:47:47.558Z,100255.00
2022-10-25T12:50:32.936Z,100251.41
2022-10-25T12:53:00.735Z,100251.72
2022-10-25T12:55:37.744Z,100253.91
2022-10-25T12:58:08.439Z,100253.72
2022-10-25T13:01:13.107Z,100260.72
2022-10-25T13:04:25.681Z,100259.28
2022-10-25T13:06:54.083Z,100259.88
2022-10-25T13:09:26.982Z,100263.28
2022-10-25T13:12:09.060Z,100252.28
2022-10-25T13:14:47.166Z,100268.03
2022-10-25T13:17:20.205Z,100260.31
2022-10-25T13:19:55.380Z,100270.91
2022-10-25T13:22:38.951Z,100267.44
2022-10-25T13:25:13.671Z,100265.81
2022-10-25T13:28:11.541Z,100267.16
2022-10-25T13:30:39.367Z,100270.22
2022-10-25T13:33:24.057Z,100270.13
2022-10-25T13:35:51.964Z,100265.06
2022-10-25T13:38:38.066Z,100272.66
2022-10-25T13:41:20.166Z,100269.06
2022-10-25T13:44:04.733Z,100270.09
2022-10-25T13:46:35.231Z,100272.91
2022-10-25T13:49:24.985Z,100277.72
2022-10-25T13:52:00.527Z,100277.75
2022-10-25T13:54:43.197Z,100276.06
2022-10-25T13:57:48.473Z,100270.84
2022-10-25T14:00:28.922Z,100281.44
2022-10-25T14:03:08.949Z,100267.13
2022-10-25T14:05:55.830Z,100280.75
2022-10-25T14:08:33.935Z,100292.00
2022-10-25T14:11:19.455Z,100299.22
2022-10-25T14:13:50.909Z,100299.94
2022-10-25T14:16:27.782Z,100289.38
2022-10-25T14:18:59.980Z,100302.28
2022-10-25T14:21:27.756Z,100292.34
2022-10-25T14:23:55.965Z,100296.69
2022-10-25T14:26:24.579Z,100295.41
2022-10-25T14:28:52.435Z,100300.31
2022-10-25T14:31:21.623Z,100301.66
2022-10-25T14:33:56.563Z,100299.78
2022-10-25T14:36:32.766Z,100303.59
2022-10-25T14:39:03.602Z,100301.41
2022-10-25T14:41:34.183Z,100302.91
2022-10-25T14:44:03.191Z,100303.56
2022-10-25T14:46:31.339Z,100315.16
2022-10-25T14:49:01.518Z,100299.59
2022-10-25T14:51:38.097Z,100311.75
2022-10-25T14:54:28.815Z,100309.41
2022-10-25T14:57:01.697Z,100305.38
2022-10-25T14:59:42.732Z,100312.03
2022-10-25T15:02:24.520Z,100308.22
2022-10-25T15:04:56.762Z,100311.69
2022-10-25T15:07:43.161Z,100309.28
2022-10-25T15:10:42.486Z,100310.66
2022-10-25T15:13:39.578Z,100314.03
2022-10-25T15:16:37.612Z,100313.53
2022-10-25T15:19:18.361Z,100321.31
2022-10-25T15:21:52.961Z,100315.03
2022-10-25T15:24:23.456Z,100317.91
2022-10-25T15:26:59.698Z,100322.41
2022-10-25T15:29:42.984Z,100317.31
2022-10-25T15:32:13.848Z,100321.31
2022-10-25T15:34:43.709Z,100321.81
2022-10-25T15:37:13.707Z,100329.72
2022-10-25T15:42:12.986Z,100328.78
2022-10-25T15:44:43.261Z,100319.69
2022-10-25T15:47:28.937Z,100327.59
2022-10-25T15:49:57.183Z,100331.31
2022-10-25T15:52:25.623Z,100334.75
2022-10-25T15:54:53.686Z,100340.00
2022-10-25T15:57:21.766Z,100343.41
2022-10-25T15:59:49.371Z,100343.56
2022-10-25T16:02:26.318Z,100339.16
2022-10-25T16:04:54.175Z,100344.75
2022-10-25T16:07:22.390Z,100342.34
2022-10-25T16:09:49.952Z,100353.03
2022-10-25T16:12:24.453Z,100354.75
2022-10-25T16:14:52.190Z,100357.47
2022-10-25T16:17:20.012Z,100358.63
2022-10-25T16:19:47.644Z,100356.59
2022-10-25T16:22:15.531Z,100357.84
2022-10-25T16:24:43.113Z,100362.81
2022-10-25T16:27:14.815Z,100371.22
2022-10-25T16:29:42.501Z,100368.00
2022-10-25T16:32:10.660Z,100371.47
2022-10-25T16:34:42.380Z,100378.56
2022-10-25T16:37:11.980Z,100371.97
2022-10-25T16:39:40.091Z,100380.31
2022-10-25T16:42:31.375Z,100389.16
2022-10-25T16:45:00.277Z,100382.78
2022-10-25T16:47:28.765Z,100382.03
2022-10-25T16:49:56.410Z,100386.84
2022-10-25T16:52:24.306Z,100388.63
2022-10-25T16:54:51.968Z,100394.91
2022-10-25T16:57:19.879Z,100391.50
2022-10-25T16:59:47.580Z,100396.28
2022-10-25T17:02:21.064Z,100392.72
2022-10-25T17:04:49.530Z,100392.19
2022-10-25T17:07:18.271Z,100396.06
2022-10-25T17:09:45.941Z,100399.84
2022-10-25T17:12:13.973Z,100400.31
2022-10-25T17:14:41.649Z,100393.34
2022-10-25T17:17:09.573Z,100397.22
2022-10-25T17:19:37.400Z,100402.72
2022-10-25T17:22:05.265Z,100403.44
2022-10-25T17:24:35.970Z,100409.94
2022-10-25T17:27:07.728Z,100416.44
2022-10-25T17:29:35.336Z,100409.47
2022-10-25T17:32:03.399Z,100413.19
2022-10-25T17:34:32.149Z,100411.63
2022-10-25T17:37:02.254Z,100411.63
2022-10-25T17:39:30.312Z,100417.06
2022-10-25T17:41:58.109Z,100414.72
2022-10-25T17:44:25.773Z,100424.19
2022-10-25T17:46:54.338Z,100419.63
2022-10-25T17:49:23.250Z,100420.47
2022-10-25T17:51:51.101Z,100425.13
2022-10-25T17:54:19.177Z,100423.41
2022-10-25T17:56:47.026Z,100422.94
2022-10-25T17:59:14.577Z,100418.75
2022-10-25T18:01:43.024Z,100418.22
2022-10-25T18:04:10.966Z,100429.09
2022-10-25T18:06:39.055Z,100422.81
2022-10-25T18:09:06.738Z,100427.31
2022-10-25T18:11:34.631Z,100423.13
2022-10-25T18:14:02.675Z,100425.81
2022-10-25T18:16:32.271Z,100428.22
2022-10-25T18:19:02.178Z,100418.06
2022-10-25T18:21:31.636Z,100421.47
2022-10-25T18:24:01.103Z,100425.28
2022-10-25T18:26:29.604Z,100419.94
2022-10-25T18:28:58.407Z,100419.84
2022-10-25T18:31:27.308Z,100428.84
2022-10-25T18:33:58.831Z,100414.13
2022-10-25T18:36:27.674Z,100422.81
2022-10-25T18:38:55.951Z,100418.69
2022-10-25T18:41:30.117Z,100421.09
2022-10-25T18:43:58.506Z,100429.25
2022-10-25T18:46:29.373Z,100423.13
2022-10-25T18:48:57.411Z,100426.69
2022-10-25T18:51:28.846Z,100425.13
2022-10-25T18:54:01.373Z,100416.28
2022-10-25T18:56:30.929Z,100418.28
2022-10-25T18:58:59.216Z,100427.03
2022-10-25T19:01:32.191Z,100414.50
2022-10-25T19:04:02.314Z,100419.50
2022-10-25T19:06:30.792Z,100424.88
2022-10-25T19:08:58.787Z,100426.41
2022-10-25T19:11:26.955Z,100430.16
2022-10-25T19:13:55.968Z,100422.84
2022-10-25T19:16:24.165Z,100422.72
2022-10-25T19:18:52.346Z,100433.25
2022-10-25T19:21:20.522Z,100426.13
2022-10-25T19:23:48.575Z,100433.75
2022-10-25T19:26:19.480Z,100435.31
2022-10-25T19:28:47.491Z,100431.84
2022-10-25T19:31:18.570Z,100432.16
2022-10-25T19:33:49.640Z,100445.47
2022-10-25T19:36:19.233Z,100439.50
2022-10-25T19:38:48.805Z,100441.44
2022-10-25T19:41:19.093Z,100447.19
2022-10-25T19:43:47.519Z,100439.34
2022-10-25T19:46:16.698Z,100444.00
2022-10-25T19:48:44.916Z,100445.47
2022-10-25T19:51:15.849Z,100447.47
2022-10-25T19:53:44.342Z,100449.63
2022-10-25T19:56:21.193Z,100448.78
2022-10-25T19:58:49.614Z,100451.03
2022-10-25T20:01:21.655Z,100444.25
2022-10-25T20:03:51.758Z,100452.75
2022-10-25T20:06:24.675Z,100450.28
2022-10-25T20:08:53.528Z,100449.31
2022-10-25T20:11:22.790Z,100453.75
2022-10-25T20:13:54.391Z,100458.47
2022-10-25T20:16:23.193Z,100467.44
2022-10-25T20:18:50.892Z,100469.28
2022-10-25T20:21:24.037Z,100470.00
2022-10-25T20:24:00.850Z,100474.34
2022-10-25T20:26:35.235Z,100466.69
2022-10-25T20:29:04.709Z,100467.00
2022-10-25T20:31:35.137Z,100471.50
2022-10-25T20:34:02.876Z,100478.81
2022-10-25T20:36:31.216Z,100476.13
2022-10-25T20:38:58.845Z,100482.16
2022-10-25T20:41:28.697Z,100483.38
2022-10-25T20:43:59.788Z,100482.44
2022-10-25T20:46:28.854Z,100491.56
2022-10-25T20:48:58.140Z,100484.78
2022-10-25T20:51:27.046Z,100481.38
2022-10-25T20:53:54.802Z,100489.19
2022-10-25T20:56:22.722Z,100486.84
2022-10-25T20:58:50.953Z,100485.53
2022-10-25T21:01:19.539Z,100483.09
2022-10-25T21:03:47.370Z,100481.38
2022-10-25T21:06:15.274Z,100487.50
2022-10-25T21:08:42.899Z,100490.81
2022-10-25T21:11:13.134Z,100488.63
2022-10-25T21:13:42.973Z,100487.31
2022-10-25T21:16:13.514Z,100490.34
2022-10-25T21:18:42.632Z,100492.78
2022-10-25T21:21:18.625Z,100492.84
2022-10-25T21:23:48.696Z,100499.13
2022-10-25T21:26:16.647Z,100489.16
2022-10-25T21:28:44.215Z,100494.94
2022-10-25T21:31:15.046Z,100492.97
2022-10-25T21:33:50.282Z,100495.84
2022-10-25T21:36:20.533Z,100495.53
2022-10-25T21:38:48.773Z,100494.41
2022-10-25T21:41:20.681Z,100497.91
2022-10-25T21:43:50.613Z,100504.00
2022-10-25T21:46:20.446Z,100505.06
2022-10-25T21:48:50.568Z,100510.41
2022-10-25T21:51:20.391Z,100510.31
2022-10-25T21:53:48.830Z,100514.66
2022-10-25T21:56:19.091Z,100518.88
2022-10-25T21:58:49.955Z,100518.94
2022-10-25T22:01:21.691Z,100520.06
2022-10-25T22:03:49.829Z,100522.56
2022-10-25T22:06:24.615Z,100519.41
2022-10-25T22:08:55.030Z,100512.69
2022-10-25T22:11:29.215Z,100511.91
2022-10-25T22:14:02.245Z,100512.19
2022-10-25T22:16:31.642Z,100509.69
2022-10-25T22:19:05.820Z,100517.00
2022-10-25T22:21:36.644Z,100512.06
2022-10-25T22:24:06.268Z,100504.50
2022-10-25T22:26:34.687Z,100505.56
2022-10-25T22:29:02.264Z,100513.81
2022-10-25T22:31:30.760Z,100515.03
2022-10-25T22:34:03.679Z,100509.09
2022-10-25T22:36:34.130Z,100508.06
2022-10-25T22:39:02.360Z,100518.00
2022-10-25T22:41:30.970Z,100522.34
2022-10-25T22:43:59.421Z,100524.72
2022-10-25T22:46:33.505Z,100524.91
2022-10-25T22:49:06.713Z,100528.09
2022-10-25T22:51:35.614Z,100526.91
2022-10-25T22:54:03.611Z,100531.56
2022-10-25T22:56:32.448Z,100530.78
2022-10-25T22:59:02.454Z,100527.59
2022-10-25T23:01:33.442Z,100524.19
2022-10-25T23:04:03.941Z,100527.84
2022-10-25T23:06:34.428Z,100528.34
2022-10-25T23:09:04.641Z,100524.50
2022-10-25T23:11:34.944Z,100526.38
2022-10-25T23:14:03.630Z,100533.41
2022-10-25T23:16:31.588Z,100521.66
2022-10-25T23:18:59.254Z,100529.22
2022-10-25T23:21:30.261Z,100527.72
2022-10-25T23:23:59.575Z,100530.00
2022-10-25T23:26:36.410Z,100522.19
2022-10-25T23:29:04.576Z,100530.31
2022-10-25T23:31:33.662Z,100539.25
2022-10-25T23:34:01.920Z,100539.31
2022-10-25T23:36:37.715Z,100535.78
2022-10-25T23:39:08.154Z,100537.00
2022-10-25T23:41:36.107Z,100541.00
2022-10-25T23:44:03.803Z,100540.06
2022-10-25T23:46:31.607Z,100547.06
2022-10-25T23:48:59.238Z,100545.88
2022-10-25T23:51:27.049Z,100536.41
2022-10-25T23:53:54.607Z,100543.56
2022-10-25T23:56:22.511Z,100545.38
2022-10-25T23:58:53.696Z,100536.91
